Rivas, Nicaragua
Current Conditions -  °F | °C
As of 9:00 PM on Tuesday 21 Oct 2014 (Local Time) from MNMG Reporting Station
Scattered Clouds Scattered Clouds  
Wind Chill: 77°   Ceiling: Unl
Heat Index: 78°   Visibility: 6mi
Dew Point: 73°   Wind: 5mph
Humidity: 89%   Direction: 150°SSE
Pressure: 29.83"   Gusts: NA
Location:  11.44°N, 85.82°W
Report Text: MNMG 220300Z 15004KT 9999 FEW020CB SCT022 25/23 Q1010 A2984 CB NE /S/ FL TEMPO 9000 BR
Loading
Personal Weather Stations






























Interactive Weather Map
Tropical Storm Tracking
New forecast layout! Learn more

10-Day Weather Forecast

Advertisements
Track Severe Weather on mobile